sensor_id;sensor_type;location;lat;lon;timestamp;pressure;altitude;pressure_sealevel;temperature;humidity
54816;BME280;40715;55.752;37.884;2022-09-01T00:01:20;98298.69;;;16.96;46.04
54816;BME280;40715;55.752;37.884;2022-09-01T00:03:47;98316.16;;;17.00;46.13
54816;BME280;40715;55.752;37.884;2022-09-01T00:06:15;98325.59;;;17.04;46.24
54816;BME280;40715;55.752;37.884;2022-09-01T00:08:52;98310.72;;;17.02;46.31
54816;BME280;40715;55.752;37.884;2022-09-01T00:11:22;98312.50;;;17.01;46.11
54816;BME280;40715;55.752;37.884;2022-09-01T00:13:50;98310.06;;;16.98;46.25
54816;BME280;40715;55.752;37.884;2022-09-01T00:16:18;98308.38;;;16.97;46.24
54816;BME280;40715;55.752;37.884;2022-09-01T00:18:49;98309.97;;;17.00;46.52
54816;BME280;40715;55.752;37.884;2022-09-01T00:21:19;98313.91;;;16.94;46.31
54816;BME280;40715;55.752;37.884;2022-09-01T00:23:47;98314.97;;;16.91;46.30
54816;BME280;40715;55.752;37.884;2022-09-01T00:26:14;98315.50;;;16.97;46.49
54816;BME280;40715;55.752;37.884;2022-09-01T00:28:41;98303.25;;;16.94;46.37
54816;BME280;40715;55.752;37.884;2022-09-01T00:31:09;98314.34;;;17.01;46.23
54816;BME280;40715;55.752;37.884;2022-09-01T00:33:37;98303.03;;;16.97;46.26
54816;BME280;40715;55.752;37.884;2022-09-01T00:36:04;98324.31;;;17.10;46.02
54816;BME280;40715;55.752;37.884;2022-09-01T00:38:33;98314.44;;;17.12;46.07
54816;BME280;40715;55.752;37.884;2022-09-01T00:41:00;98321.03;;;17.06;45.81
54816;BME280;40715;55.752;37.884;2022-09-01T00:43:43;98298.28;;;16.89;46.00
54816;BME280;40715;55.752;37.884;2022-09-01T00:46:17;98321.03;;;16.94;46.08
54816;BME280;40715;55.752;37.884;2022-09-01T00:48:51;98320.69;;;16.85;46.21
54816;BME280;40715;55.752;37.884;2022-09-01T00:51:19;98312.09;;;16.82;46.44
54816;BME280;40715;55.752;37.884;2022-09-01T00:53:46;98314.94;;;16.79;46.36
54816;BME280;40715;55.752;37.884;2022-09-01T00:56:15;98305.56;;;16.73;46.40
54816;BME280;40715;55.752;37.884;2022-09-01T00:58:43;98316.19;;;16.73;46.45
54816;BME280;40715;55.752;37.884;2022-09-01T01:01:11;98299.06;;;16.64;46.38
54816;BME280;40715;55.752;37.884;2022-09-01T01:03:38;98320.56;;;16.74;46.48
54816;BME280;40715;55.752;37.884;2022-09-01T01:06:08;98316.00;;;16.76;46.46
54816;BME280;40715;55.752;37.884;2022-09-01T01:08:39;98319.41;;;16.78;46.52
54816;BME280;40715;55.752;37.884;2022-09-01T01:11:13;98324.41;;;16.83;46.29
54816;BME280;40715;55.752;37.884;2022-09-01T01:13:53;98321.75;;;16.83;46.26
54816;BME280;40715;55.752;37.884;2022-09-01T01:16:21;98320.91;;;16.82;46.16
54816;BME280;40715;55.752;37.884;2022-09-01T01:18:50;98324.50;;;16.81;46.25
54816;BME280;40715;55.752;37.884;2022-09-01T01:21:28;98314.19;;;16.77;46.23
54816;BME280;40715;55.752;37.884;2022-09-01T01:24:34;98317.59;;;16.79;46.20
54816;BME280;40715;55.752;37.884;2022-09-01T01:27:01;98308.75;;;16.65;45.89
54816;BME280;40715;55.752;37.884;2022-09-01T01:29:34;98318.84;;;16.60;46.18
54816;BME280;40715;55.752;37.884;2022-09-01T01:32:05;98308.00;;;16.50;46.04
54816;BME280;40715;55.752;37.884;2022-09-01T01:34:39;98308.38;;;16.31;46.00
54816;BME280;40715;55.752;37.884;2022-09-01T01:37:08;98310.25;;;16.16;46.16
54816;BME280;40715;55.752;37.884;2022-09-01T01:39:36;98306.78;;;16.01;46.27
54816;BME280;40715;55.752;37.884;2022-09-01T01:42:09;98311.97;;;15.90;46.44
54816;BME280;40715;55.752;37.884;2022-09-01T01:44:36;98304.19;;;15.87;46.62
54816;BME280;40715;55.752;37.884;2022-09-01T01:47:07;98300.25;;;15.80;46.85
54816;BME280;40715;55.752;37.884;2022-09-01T01:49:35;98288.78;;;15.65;47.02
54816;BME280;40715;55.752;37.884;2022-09-01T01:52:03;98316.06;;;15.67;47.03
54816;BME280;40715;55.752;37.884;2022-09-01T01:54:30;98305.66;;;15.64;47.16
54816;BME280;40715;55.752;37.884;2022-09-01T01:56:59;98302.69;;;15.68;47.31
54816;BME280;40715;55.752;37.884;2022-09-01T01:59:26;98296.34;;;15.71;47.18
54816;BME280;40715;55.752;37.884;2022-09-01T02:01:55;98299.09;;;15.69;47.07
54816;BME280;40715;55.752;37.884;2022-09-01T02:04:22;98310.66;;;15.68;47.30
54816;BME280;40715;55.752;37.884;2022-09-01T02:06:50;98302.22;;;15.76;47.30
54816;BME280;40715;55.752;37.884;2022-09-01T02:09:19;98302.28;;;15.75;47.05
54816;BME280;40715;55.752;37.884;2022-09-01T02:11:46;98302.28;;;15.75;47.13
54816;BME280;40715;55.752;37.884;2022-09-01T02:14:14;98306.13;;;15.70;46.94
54816;BME280;40715;55.752;37.884;2022-09-01T02:16:41;98312.13;;;15.60;47.15
54816;BME280;40715;55.752;37.884;2022-09-01T02:19:08;98305.59;;;15.51;47.47
54816;BME280;40715;55.752;37.884;2022-09-01T02:21:38;98307.84;;;15.57;47.37
54816;BME280;40715;55.752;37.884;2022-09-01T02:24:10;98316.59;;;15.59;47.42
54816;BME280;40715;55.752;37.884;2022-09-01T02:26:42;98320.72;;;15.63;47.44
54816;BME280;40715;55.752;37.884;2022-09-01T02:29:15;98318.72;;;15.67;47.38
54816;BME280;40715;55.752;37.884;2022-09-01T02:31:50;98311.13;;;15.75;47.17
54816;BME280;40715;55.752;37.884;2022-09-01T02:34:18;98310.84;;;15.80;47.06
54816;BME280;40715;55.752;37.884;2022-09-01T02:36:49;98303.91;;;15.77;46.78
54816;BME280;40715;55.752;37.884;2022-09-01T02:39:20;98298.34;;;15.67;47.00
54816;BME280;40715;55.752;37.884;2022-09-01T02:41:49;98313.31;;;15.68;46.87
54816;BME280;40715;55.752;37.884;2022-09-01T02:44:16;98319.78;;;15.79;46.88
54816;BME280;40715;55.752;37.884;2022-09-01T02:46:49;98316.75;;;15.85;46.82
54816;BME280;40715;55.752;37.884;2022-09-01T02:49:19;98316.22;;;15.93;46.69
54816;BME280;40715;55.752;37.884;2022-09-01T02:51:51;98324.88;;;15.96;46.34
54816;BME280;40715;55.752;37.884;2022-09-01T02:54:21;98315.81;;;15.99;46.29
54816;BME280;40715;55.752;37.884;2022-09-01T02:56:51;98318.09;;;16.05;46.36
54816;BME280;40715;55.752;37.884;2022-09-01T02:59:22;98326.59;;;16.10;46.28
54816;BME280;40715;55.752;37.884;2022-09-01T03:01:51;98315.84;;;16.12;46.17
54816;BME280;40715;55.752;37.884;2022-09-01T03:04:21;98314.53;;;16.19;46.07
54816;BME280;40715;55.752;37.884;2022-09-01T03:06:49;98322.19;;;16.24;45.89
54816;BME280;40715;55.752;37.884;2022-09-01T03:09:21;98317.09;;;16.20;45.82
54816;BME280;40715;55.752;37.884;2022-09-01T03:11:50;98318.56;;;16.25;45.87
54816;BME280;40715;55.752;37.884;2022-09-01T03:14:18;98315.72;;;16.28;45.79
54816;BME280;40715;55.752;37.884;2022-09-01T03:16:46;98310.91;;;16.20;45.69
54816;BME280;40715;55.752;37.884;2022-09-01T03:19:14;98321.66;;;16.31;45.64
54816;BME280;40715;55.752;37.884;2022-09-01T03:21:44;98320.22;;;16.13;45.85
54816;BME280;40715;55.752;37.884;2022-09-01T03:24:14;98326.69;;;16.09;45.99
54816;BME280;40715;55.752;37.884;2022-09-01T03:26:43;98332.25;;;16.18;45.98
54816;BME280;40715;55.752;37.884;2022-09-01T03:29:11;98315.16;;;16.22;45.89
54816;BME280;40715;55.752;37.884;2022-09-01T03:31:39;98324.88;;;16.36;45.87
54816;BME280;40715;55.752;37.884;2022-09-01T03:34:06;98314.66;;;16.43;45.58
54816;BME280;40715;55.752;37.884;2022-09-01T03:36:36;98315.88;;;16.52;45.36
54816;BME280;40715;55.752;37.884;2022-09-01T03:39:03;98317.91;;;16.61;45.25
54816;BME280;40715;55.752;37.884;2022-09-01T03:41:31;98322.91;;;16.79;45.02
54816;BME280;40715;55.752;37.884;2022-09-01T03:43:58;98322.09;;;16.91;44.91
54816;BME280;40715;55.752;37.884;2022-09-01T03:46:27;98307.53;;;16.97;44.40
54816;BME280;40715;55.752;37.884;2022-09-01T03:49:01;98318.69;;;17.15;44.23
54816;BME280;40715;55.752;37.884;2022-09-01T03:51:29;98321.47;;;17.13;43.70
54816;BME280;40715;55.752;37.884;2022-09-01T03:53:58;98325.94;;;17.13;43.86
54816;BME280;40715;55.752;37.884;2022-09-01T03:56:27;98319.13;;;17.08;43.79
54816;BME280;40715;55.752;37.884;2022-09-01T03:58:56;98324.13;;;17.00;44.03
54816;BME280;40715;55.752;37.884;2022-09-01T04:01:26;98319.44;;;17.04;43.79
54816;BME280;40715;55.752;37.884;2022-09-01T04:03:53;98325.09;;;17.12;43.76
54816;BME280;40715;55.752;37.884;2022-09-01T04:06:20;98318.69;;;17.15;43.62
54816;BME280;40715;55.752;37.884;2022-09-01T04:08:50;98323.03;;;17.16;43.40
54816;BME280;40715;55.752;37.884;2022-09-01T04:11:22;98304.44;;;17.03;43.41
54816;BME280;40715;55.752;37.884;2022-09-01T04:13:50;98311.97;;;17.22;43.24
54816;BME280;40715;55.752;37.884;2022-09-01T04:16:20;98322.09;;;17.17;43.15
54816;BME280;40715;55.752;37.884;2022-09-01T04:19:07;98324.41;;;17.21;43.13
54816;BME280;40715;55.752;37.884;2022-09-01T04:22:08;98314.09;;;17.30;43.06
54816;BME280;40715;55.752;37.884;2022-09-01T04:24:39;98317.78;;;17.40;42.80
54816;BME280;40715;55.752;37.884;2022-09-01T04:27:11;98316.63;;;17.44;42.61
54816;BME280;40715;55.752;37.884;2022-09-01T04:29:38;98320.25;;;17.43;42.43
54816;BME280;40715;55.752;37.884;2022-09-01T04:32:08;98320.38;;;17.41;42.42
54816;BME280;40715;55.752;37.884;2022-09-01T04:34:38;98324.00;;;17.40;42.37
54816;BME280;40715;55.752;37.884;2022-09-01T04:37:11;98314.97;;;17.30;42.30
54816;BME280;40715;55.752;37.884;2022-09-01T04:39:41;98327.28;;;17.31;42.18
54816;BME280;40715;55.752;37.884;2022-09-01T04:42:19;98327.72;;;17.38;42.25
54816;BME280;40715;55.752;37.884;2022-09-01T04:44:50;98327.16;;;17.46;41.77
54816;BME280;40715;55.752;37.884;2022-09-01T04:47:19;98333.13;;;17.49;41.67
54816;BME280;40715;55.752;37.884;2022-09-01T04:50:00;98326.41;;;17.56;41.38
54816;BME280;40715;55.752;37.884;2022-09-01T04:52:29;98324.16;;;17.63;41.00
54816;BME280;40715;55.752;37.884;2022-09-01T04:54:57;98329.25;;;17.66;40.80
54816;BME280;40715;55.752;37.884;2022-09-01T04:57:24;98330.66;;;17.59;40.43
54816;BME280;40715;55.752;37.884;2022-09-01T04:59:54;98328.94;;;17.58;40.23
54816;BME280;40715;55.752;37.884;2022-09-01T05:02:22;98322.91;;;17.56;40.28
54816;BME280;40715;55.752;37.884;2022-09-01T05:04:53;98331.94;;;17.53;39.98
54816;BME280;40715;55.752;37.884;2022-09-01T05:07:20;98327.25;;;17.57;39.99
54816;BME280;40715;55.752;37.884;2022-09-01T05:09:51;98318.09;;;17.48;39.78
54816;BME280;40715;55.752;37.884;2022-09-01T05:12:23;98326.84;;;17.50;39.64
54816;BME280;40715;55.752;37.884;2022-09-01T05:14:50;98333.25;;;17.48;39.67
54816;BME280;40715;55.752;37.884;2022-09-01T05:17:18;98340.16;;;17.50;39.58
54816;BME280;40715;55.752;37.884;2022-09-01T05:19:47;98336.41;;;17.53;39.43
54816;BME280;40715;55.752;37.884;2022-09-01T05:22:16;98345.47;;;17.63;39.21
54816;BME280;40715;55.752;37.884;2022-09-01T05:24:47;98329.59;;;17.62;39.00
54816;BME280;40715;55.752;37.884;2022-09-01T05:27:19;98336.19;;;17.69;38.59
54816;BME280;40715;55.752;37.884;2022-09-01T05:29:46;98325.16;;;17.86;38.18
54816;BME280;40715;55.752;37.884;2022-09-01T05:32:15;98353.44;;;18.13;37.93
54816;BME280;40715;55.752;37.884;2022-09-01T05:34:43;98344.56;;;18.37;37.66
54816;BME280;40715;55.752;37.884;2022-09-01T05:37:11;98344.19;;;18.66;37.12
54816;BME280;40715;55.752;37.884;2022-09-01T05:39:43;98350.16;;;18.80;36.36
54816;BME280;40715;55.752;37.884;2022-09-01T05:42:16;98353.63;;;19.05;36.75
54816;BME280;40715;55.752;37.884;2022-09-01T05:44:44;98346.75;;;19.03;35.97
54816;BME280;40715;55.752;37.884;2022-09-01T05:47:11;98345.03;;;19.02;35.79
54816;BME280;40715;55.752;37.884;2022-09-01T05:49:40;98345.50;;;19.07;35.66
54816;BME280;40715;55.752;37.884;2022-09-01T05:52:07;98354.00;;;19.12;35.65
54816;BME280;40715;55.752;37.884;2022-09-01T05:54:34;98348.19;;;19.18;35.31
54816;BME280;40715;55.752;37.884;2022-09-01T05:57:02;98341.41;;;19.25;35.12
54816;BME280;40715;55.752;37.884;2022-09-01T05:59:49;98337.63;;;19.28;34.83
54816;BME280;40715;55.752;37.884;2022-09-01T06:02:21;98348.31;;;19.28;34.76
54816;BME280;40715;55.752;37.884;2022-09-01T06:04:49;98327.44;;;19.22;34.62
54816;BME280;40715;55.752;37.884;2022-09-01T06:07:18;98355.97;;;19.55;34.61
54816;BME280;40715;55.752;37.884;2022-09-01T06:09:51;98349.16;;;19.74;33.97
54816;BME280;40715;55.752;37.884;2022-09-01T06:12:19;98347.84;;;19.79;34.08
54816;BME280;40715;55.752;37.884;2022-09-01T06:14:51;98339.22;;;19.87;33.82
54816;BME280;40715;55.752;37.884;2022-09-01T06:17:21;98355.22;;;19.98;33.84
54816;BME280;40715;55.752;37.884;2022-09-01T06:19:51;98340.84;;;20.11;33.68
54816;BME280;40715;55.752;37.884;2022-09-01T06:22:19;98342.44;;;20.02;33.46
54816;BME280;40715;55.752;37.884;2022-09-01T06:24:46;98348.66;;;20.03;33.44
54816;BME280;40715;55.752;37.884;2022-09-01T06:27:20;98333.88;;;19.87;33.22
54816;BME280;40715;55.752;37.884;2022-09-01T06:29:47;98363.72;;;19.92;33.33
54816;BME280;40715;55.752;37.884;2022-09-01T06:32:21;98360.69;;;19.97;33.55
54816;BME280;40715;55.752;37.884;2022-09-01T06:34:51;98358.84;;;20.09;33.20
54816;BME280;40715;55.752;37.884;2022-09-01T06:37:18;98357.84;;;20.21;33.02
54816;BME280;40715;55.752;37.884;2022-09-01T06:39:49;98352.09;;;20.26;33.01
54816;BME280;40715;55.752;37.884;2022-09-01T06:42:16;98361.66;;;20.40;32.87
54816;BME280;40715;55.752;37.884;2022-09-01T06:44:45;98353.91;;;20.58;32.25
54816;BME280;40715;55.752;37.884;2022-09-01T06:47:12;98356.91;;;20.97;31.99
54816;BME280;40715;55.752;37.884;2022-09-01T06:49:41;98357.44;;;21.74;31.22
54816;BME280;40715;55.752;37.884;2022-09-01T06:52:08;98350.69;;;22.49;30.38
54816;BME280;40715;55.752;37.884;2022-09-01T06:54:39;98354.50;;;22.66;29.53
54816;BME280;40715;55.752;37.884;2022-09-01T06:57:09;98350.25;;;22.54;29.19
54816;BME280;40715;55.752;37.884;2022-09-01T06:59:56;98356.97;;;22.29;30.25
54816;BME280;40715;55.752;37.884;2022-09-01T07:02:23;98374.44;;;21.94;29.93
54816;BME280;40715;55.752;37.884;2022-09-01T07:04:52;98368.28;;;21.62;30.04
54816;BME280;40715;55.752;37.884;2022-09-01T07:07:19;98356.00;;;21.38;30.21
54816;BME280;40715;55.752;37.884;2022-09-01T07:10:08;98369.16;;;21.20;30.59
54816;BME280;40715;55.752;37.884;2022-09-01T07:12:52;98356.16;;;21.16;30.63
54816;BME280;40715;55.752;37.884;2022-09-01T07:15:41;98359.38;;;21.10;30.72
54816;BME280;40715;55.752;37.884;2022-09-01T07:18:29;98349.00;;;20.95;30.55
54816;BME280;40715;55.752;37.884;2022-09-01T07:20:57;98364.69;;;21.00;30.76
54816;BME280;40715;55.752;37.884;2022-09-01T07:23:44;98362.06;;;20.89;31.01
54816;BME280;40715;55.752;37.884;2022-09-01T07:26:13;98364.72;;;20.67;30.87
54816;BME280;40715;55.752;37.884;2022-09-01T07:28:50;98354.97;;;20.45;31.12
54816;BME280;40715;55.752;37.884;2022-09-01T07:31:29;98365.63;;;20.57;31.08
54816;BME280;40715;55.752;37.884;2022-09-01T07:34:17;98374.19;;;20.39;31.27
54816;BME280;40715;55.752;37.884;2022-09-01T07:37:05;98375.91;;;20.29;31.47
54816;BME280;40715;55.752;37.884;2022-09-01T07:39:52;98367.38;;;20.03;31.63
54816;BME280;40715;55.752;37.884;2022-09-01T07:42:21;98373.81;;;19.77;31.95
54816;BME280;40715;55.752;37.884;2022-09-01T07:45:09;98375.88;;;19.74;32.65
54816;BME280;40715;55.752;37.884;2022-09-01T07:47:53;98371.00;;;20.02;32.21
54816;BME280;40715;55.752;37.884;2022-09-01T07:50:20;98366.06;;;20.29;31.86
54816;BME280;40715;55.752;37.884;2022-09-01T07:53:05;98364.84;;;20.33;31.51
54816;BME280;40715;55.752;37.884;2022-09-01T07:55:34;98366.56;;;20.23;31.49
54816;BME280;40715;55.752;37.884;2022-09-01T07:58:01;98371.34;;;20.20;31.66
54816;BME280;40715;55.752;37.884;2022-09-01T08:00:28;98366.34;;;20.15;31.82
54816;BME280;40715;55.752;37.884;2022-09-01T08:02:56;98369.16;;;20.13;31.88
54816;BME280;40715;55.752;37.884;2022-09-01T08:05:23;98369.25;;;20.23;31.96
54816;BME280;40715;55.752;37.884;2022-09-01T08:07:52;98363.47;;;20.39;31.91
54816;BME280;40715;55.752;37.884;2022-09-01T08:10:20;98372.63;;;20.69;31.83
54816;BME280;40715;55.752;37.884;2022-09-01T08:12:48;98359.91;;;21.03;31.38
54816;BME280;40715;55.752;37.884;2022-09-01T08:15:24;98371.38;;;21.36;30.99
54816;BME280;40715;55.752;37.884;2022-09-01T08:18:12;98358.13;;;21.45;30.77
54816;BME280;40715;55.752;37.884;2022-09-01T08:20:41;98365.47;;;21.43;30.68
54816;BME280;40715;55.752;37.884;2022-09-01T08:23:13;98362.09;;;21.41;30.42
54816;BME280;40715;55.752;37.884;2022-09-01T08:25:44;98347.25;;;21.36;30.40
54816;BME280;40715;55.752;37.884;2022-09-01T08:28:13;98359.78;;;21.36;30.60
54816;BME280;40715;55.752;37.884;2022-09-01T08:30:42;98366.75;;;21.17;30.99
54816;BME280;40715;55.752;37.884;2022-09-01T08:33:14;98367.75;;;21.16;30.97
54816;BME280;40715;55.752;37.884;2022-09-01T08:35:45;98364.69;;;21.00;30.92
54816;BME280;40715;55.752;37.884;2022-09-01T08:38:12;98373.25;;;20.61;31.32
54816;BME280;40715;55.752;37.884;2022-09-01T08:40:41;98372.03;;;20.33;31.49
54816;BME280;40715;55.752;37.884;2022-09-01T08:43:41;98372.53;;;20.27;32.00
54816;BME280;40715;55.752;37.884;2022-09-01T08:46:23;98385.53;;;20.31;32.16
54816;BME280;40715;55.752;37.884;2022-09-01T08:48:54;98378.59;;;20.61;31.76
54816;BME280;40715;55.752;37.884;2022-09-01T08:51:47;98376.34;;;20.99;31.32
54816;BME280;40715;55.752;37.884;2022-09-01T08:54:47;98364.06;;;20.96;30.89
54816;BME280;40715;55.752;37.884;2022-09-01T08:57:34;98374.88;;;20.85;31.14
54816;BME280;40715;55.752;37.884;2022-09-01T09:00:05;98368.78;;;20.50;31.07
54816;BME280;40715;55.752;37.884;2022-09-01T09:02:52;98380.47;;;20.49;31.45
54816;BME280;40715;55.752;37.884;2022-09-01T09:09:01;98394.63;;;20.29;31.53
54816;BME280;40715;55.752;37.884;2022-09-01T09:11:52;98407.75;;;20.32;31.49
54816;BME280;40715;55.752;37.884;2022-09-01T09:17:17;98399.59;;;20.33;31.36
54816;BME280;40715;55.752;37.884;2022-09-01T09:19:45;98396.06;;;20.44;31.50
54816;BME280;40715;55.752;37.884;2022-09-01T09:22:15;98405.47;;;20.71;30.96
54816;BME280;40715;55.752;37.884;2022-09-01T09:25:12;98388.69;;;20.90;30.88
54816;BME280;40715;55.752;37.884;2022-09-01T09:27:45;98410.63;;;21.26;30.55
54816;BME280;40715;55.752;37.884;2022-09-01T09:30:24;98409.72;;;21.37;30.06
54816;BME280;40715;55.752;37.884;2022-09-01T09:35:49;98415.41;;;21.44;29.80
54816;BME280;40715;55.752;37.884;2022-09-01T09:38:22;98411.50;;;21.27;29.55
54816;BME280;40715;55.752;37.884;2022-09-01T09:43:50;98418.28;;;20.89;30.06
54816;BME280;40715;55.752;37.884;2022-09-01T09:49:27;98422.13;;;20.96;30.17
54816;BME280;40715;55.752;37.884;2022-09-01T09:54:30;98431.84;;;20.64;30.03
54816;BME280;40715;55.752;37.884;2022-09-01T10:04:54;98430.19;;;20.20;30.61
54816;BME280;40715;55.752;37.884;2022-09-01T10:07:33;98439.28;;;20.17;30.79
54816;BME280;40715;55.752;37.884;2022-09-01T10:10:07;98436.59;;;20.28;30.59
54816;BME280;40715;55.752;37.884;2022-09-01T10:12:55;98445.09;;;20.77;30.26
54816;BME280;40715;55.752;37.884;2022-09-01T10:15:28;98442.41;;;21.10;29.75
54816;BME280;40715;55.752;37.884;2022-09-01T10:18:01;98446.91;;;21.30;29.34
54816;BME280;40715;55.752;37.884;2022-09-01T10:21:00;98444.47;;;21.27;29.15
54816;BME280;40715;55.752;37.884;2022-09-01T10:23:29;98438.09;;;21.18;29.04
54816;BME280;40715;55.752;37.884;2022-09-01T10:26:01;98450.66;;;20.85;29.08
54816;BME280;40715;55.752;37.884;2022-09-01T10:28:32;98441.53;;;20.44;29.42
54816;BME280;40715;55.752;37.884;2022-09-01T10:31:01;98457.34;;;20.36;29.80
54816;BME280;40715;55.752;37.884;2022-09-01T10:33:29;98444.34;;;20.43;29.90
54816;BME280;40715;55.752;37.884;2022-09-01T10:35:55;98451.41;;;20.44;29.84
54816;BME280;40715;55.752;37.884;2022-09-01T10:38:25;98451.59;;;20.52;29.87
54816;BME280;40715;55.752;37.884;2022-09-01T10:40:57;98451.25;;;20.57;29.82
54816;BME280;40715;55.752;37.884;2022-09-01T10:43:48;98463.16;;;20.52;29.78
54816;BME280;40715;55.752;37.884;2022-09-01T10:48:56;98461.91;;;20.79;29.58
54816;BME280;40715;55.752;37.884;2022-09-01T10:54:04;98441.31;;;20.80;29.20
54816;BME280;40715;55.752;37.884;2022-09-01T10:59:06;98455.94;;;20.76;29.27
54816;BME280;40715;55.752;37.884;2022-09-01T11:15:38;98472.50;;;20.58;29.31
54816;BME280;40715;55.752;37.884;2022-09-01T11:18:09;98450.09;;;20.71;29.33
54816;BME280;40715;55.752;37.884;2022-09-01T11:20:38;98454.72;;;20.80;29.12
54816;BME280;40715;55.752;37.884;2022-09-01T11:23:19;98465.28;;;20.81;28.92
54816;BME280;40715;55.752;37.884;2022-09-01T11:28:42;98465.97;;;20.51;29.11
54816;BME280;40715;55.752;37.884;2022-09-01T11:31:30;98453.25;;;20.76;29.19
54816;BME280;40715;55.752;37.884;2022-09-01T11:34:12;98466.56;;;20.98;28.79
54816;BME280;40715;55.752;37.884;2022-09-01T11:47:24;98457.16;;;21.25;28.65
54816;BME280;40715;55.752;37.884;2022-09-01T11:50:07;98447.28;;;21.04;28.48
54816;BME280;40715;55.752;37.884;2022-09-01T11:55:46;98448.41;;;21.23;28.41
54816;BME280;40715;55.752;37.884;2022-09-01T12:01:15;98441.78;;;21.69;28.38
54816;BME280;40715;55.752;37.884;2022-09-01T12:03:44;98432.84;;;21.90;28.17
54816;BME280;40715;55.752;37.884;2022-09-01T12:06:24;98440.56;;;22.24;28.00
54816;BME280;40715;55.752;37.884;2022-09-01T12:08:55;98439.19;;;22.30;27.35
54816;BME280;40715;55.752;37.884;2022-09-01T12:11:28;98447.63;;;22.15;27.32
54816;BME280;40715;55.752;37.884;2022-09-01T12:16:31;98435.75;;;21.77;27.56
54816;BME280;40715;55.752;37.884;2022-09-01T12:19:01;98432.75;;;21.70;27.56
54816;BME280;40715;55.752;37.884;2022-09-01T12:21:39;98436.22;;;21.82;27.43
54816;BME280;40715;55.752;37.884;2022-09-01T12:24:18;98443.00;;;21.86;27.63
54816;BME280;40715;55.752;37.884;2022-09-01T12:26:48;98436.81;;;21.96;27.39
54816;BME280;40715;55.752;37.884;2022-09-01T12:29:16;98435.56;;;22.00;27.28
54816;BME280;40715;55.752;37.884;2022-09-01T12:31:46;98442.13;;;21.86;27.40
54816;BME280;40715;55.752;37.884;2022-09-01T12:37:22;98434.13;;;21.96;27.36
54816;BME280;40715;55.752;37.884;2022-09-01T12:39:52;98436.44;;;22.10;27.20
54816;BME280;40715;55.752;37.884;2022-09-01T12:44:50;98437.44;;;22.09;27.11
54816;BME280;40715;55.752;37.884;2022-09-01T12:50:04;98429.47;;;21.88;26.83
54816;BME280;40715;55.752;37.884;2022-09-01T12:52:35;98438.03;;;21.82;26.98
54816;BME280;40715;55.752;37.884;2022-09-01T12:57:31;98437.94;;;21.41;27.31
54816;BME280;40715;55.752;37.884;2022-09-01T13:00:24;98434.66;;;21.37;27.45
54816;BME280;40715;55.752;37.884;2022-09-01T13:03:14;98428.59;;;21.35;27.26
54816;BME280;40715;55.752;37.884;2022-09-01T13:05:51;98424.88;;;21.06;27.49
54816;BME280;40715;55.752;37.884;2022-09-01T13:08:20;98423.72;;;20.98;27.75
54816;BME280;40715;55.752;37.884;2022-09-01T13:10:50;98420.97;;;21.10;27.76
54816;BME280;40715;55.752;37.884;2022-09-01T13:13:20;98420.25;;;21.29;27.60
54816;BME280;40715;55.752;37.884;2022-09-01T13:15:52;98411.56;;;21.36;27.38
54816;BME280;40715;55.752;37.884;2022-09-01T13:18:21;98421.03;;;21.41;27.38
54816;BME280;40715;55.752;37.884;2022-09-01T13:20:50;98421.28;;;21.37;27.26
54816;BME280;40715;55.752;37.884;2022-09-01T13:23:19;98413.44;;;21.46;27.21
54816;BME280;40715;55.752;37.884;2022-09-01T13:25:48;98407.66;;;21.50;27.13
54816;BME280;40715;55.752;37.884;2022-09-01T13:28:16;98415.97;;;21.47;27.16
54816;BME280;40715;55.752;37.884;2022-09-01T13:30:47;98408.47;;;21.41;27.08
54816;BME280;40715;55.752;37.884;2022-09-01T13:33:38;98412.53;;;21.35;27.34
54816;BME280;40715;55.752;37.884;2022-09-01T13:36:26;98405.03;;;21.29;27.32
54816;BME280;40715;55.752;37.884;2022-09-01T13:39:11;98410.06;;;21.23;27.30
54816;BME280;40715;55.752;37.884;2022-09-01T13:41:38;98369.75;;;21.03;27.15
54816;BME280;40715;55.752;37.884;2022-09-01T13:44:06;98399.69;;;21.08;27.05
54816;BME280;40715;55.752;37.884;2022-09-01T13:46:35;98402.88;;;21.02;27.25
54816;BME280;40715;55.752;37.884;2022-09-01T13:49:22;98373.94;;;20.75;27.24
54816;BME280;40715;55.752;37.884;2022-09-01T13:52:09;98379.41;;;20.73;27.50
54816;BME280;40715;55.752;37.884;2022-09-01T13:54:37;98390.41;;;20.59;27.36
54816;BME280;40715;55.752;37.884;2022-09-01T13:57:04;98396.91;;;20.45;27.66
54816;BME280;40715;55.752;37.884;2022-09-01T13:59:31;98394.25;;;20.33;27.91
54816;BME280;40715;55.752;37.884;2022-09-01T14:01:58;98389.16;;;20.30;27.88
54816;BME280;40715;55.752;37.884;2022-09-01T14:04:27;98405.47;;;20.27;27.82
54816;BME280;40715;55.752;37.884;2022-09-01T14:06:54;98400.94;;;20.28;27.93
54816;BME280;40715;55.752;37.884;2022-09-01T14:09:21;98404.00;;;20.23;27.88
54816;BME280;40715;55.752;37.884;2022-09-01T14:11:51;98394.22;;;20.12;28.12
54816;BME280;40715;55.752;37.884;2022-09-01T14:14:19;98398.81;;;20.10;28.29
54816;BME280;40715;55.752;37.884;2022-09-01T14:16:46;98403.06;;;20.13;28.30
54816;BME280;40715;55.752;37.884;2022-09-01T14:19:15;98405.00;;;20.11;28.46
54816;BME280;40715;55.752;37.884;2022-09-01T14:21:42;98409.38;;;20.12;28.50
54816;BME280;40715;55.752;37.884;2022-09-01T14:24:10;98408.69;;;19.98;28.62
54816;BME280;40715;55.752;37.884;2022-09-01T14:26:38;98416.84;;;19.86;28.62
54816;BME280;40715;55.752;37.884;2022-09-01T14:29:06;98411.88;;;19.81;28.95
54816;BME280;40715;55.752;37.884;2022-09-01T14:31:33;98408.31;;;19.92;29.29
54816;BME280;40715;55.752;37.884;2022-09-01T14:34:02;98400.03;;;20.06;29.23
54816;BME280;40715;55.752;37.884;2022-09-01T14:36:29;98401.88;;;20.06;29.20